Terminal Aerodrome Forecast
Issued by NWS Sioux Falls, SD

Home | Current Version | Previous Version | Text Only | Print | Product List | Glossary On
Versions: 1 2 3 4 5 6 7 8 9 10 11 12 13 14 15 16 17
000
FTUS43 KFSD 172320
TAFHON
TAF
KHON 172320Z 1800/1824 05005KT P6SM SCT040
     FM180300 12005KT P6SM SCT150
      TEMPO 1810/1814 5SM BR SCT008
     FM181500 15009KT P6SM BKN015
     FM181800 17012KT P6SM SCT015 SCT120=

USA.gov is the U.S. government's official web portal to all federal, state and local government web resources and services.